createdAt,value
2018-07-21T00:02:03.960Z,3.40
2018-07-21T00:04:33.299Z,2.97
2018-07-21T00:07:02.729Z,2.90
2018-07-21T00:09:32.133Z,3.40
2018-07-21T00:12:01.332Z,2.77
2018-07-21T00:14:30.557Z,2.60
2018-07-21T00:16:59.979Z,3.20
2018-07-21T00:19:29.427Z,3.43
2018-07-21T00:21:58.620Z,2.60
2018-07-21T00:24:27.839Z,2.77
2018-07-21T00:26:58.109Z,2.90
2018-07-21T00:29:27.498Z,3.50
2018-07-21T00:31:56.683Z,2.70
2018-07-21T00:34:25.869Z,3.63
2018-07-21T00:36:55.093Z,2.27
2018-07-21T00:39:24.295Z,2.67
2018-07-21T00:41:53.744Z,2.63
2018-07-21T00:44:23.115Z,2.87
2018-07-21T00:46:54.861Z,3.20
2018-07-21T00:49:24.235Z,2.53
2018-07-21T00:51:53.833Z,2.40
2018-07-21T00:54:24.099Z,2.80
2018-07-21T00:56:53.824Z,2.57
2018-07-21T00:59:23.260Z,2.80
2018-07-21T01:01:52.461Z,2.27
2018-07-21T01:04:21.651Z,3.20
2018-07-21T01:06:50.800Z,2.50
2018-07-21T01:09:20.223Z,2.77
2018-07-21T01:11:49.607Z,2.60
2018-07-21T01:14:19.095Z,2.63
2018-07-21T01:16:48.506Z,3.50
2018-07-21T01:19:17.943Z,2.20
2018-07-21T01:21:47.125Z,2.47
2018-07-21T01:24:16.940Z,2.60
2018-07-21T01:26:46.131Z,2.57
2018-07-21T01:29:15.315Z,2.50
2018-07-21T01:31:44.499Z,2.60
2018-07-21T01:34:13.921Z,2.40
2018-07-21T01:36:43.585Z,3.30
2018-07-21T01:39:13.069Z,2.80
2018-07-21T01:41:42.750Z,2.67
2018-07-21T01:44:12.351Z,2.43
2018-07-21T01:46:43.129Z,2.43
2018-07-21T01:49:12.567Z,2.20
2018-07-21T01:51:41.841Z,2.70
2018-07-21T01:54:11.255Z,2.70
2018-07-21T01:56:40.643Z,2.50
2018-07-21T01:59:09.861Z,2.70
2018-07-21T02:01:39.303Z,2.60
2018-07-21T02:04:08.767Z,2.43
2018-07-21T02:06:37.933Z,2.13
2018-07-21T02:09:08.434Z,2.10
2018-07-21T02:11:37.825Z,2.13
2018-07-21T02:14:07.429Z,2.23
2018-07-21T02:16:37.005Z,2.43
2018-07-21T02:19:06.177Z,2.53
2018-07-21T02:21:35.464Z,2.83
2018-07-21T02:24:04.862Z,2.30
2018-07-21T02:26:34.514Z,2.47
2018-07-21T02:29:04.102Z,2.53
2018-07-21T02:31:33.487Z,2.20
2018-07-21T02:34:02.884Z,2.60
2018-07-21T02:36:32.279Z,2.27
2018-07-21T02:39:02.287Z,2.63
2018-07-21T02:41:31.915Z,1.93
2018-07-21T02:44:01.297Z,2.43
2018-07-21T02:46:30.490Z,2.40
2018-07-21T02:48:59.935Z,2.27
2018-07-21T02:51:29.303Z,3.10
2018-07-21T02:53:58.491Z,2.63
2018-07-21T02:56:27.647Z,2.53
2018-07-21T02:58:57.071Z,2.50
2018-07-21T03:01:26.487Z,2.70
2018-07-21T03:03:55.708Z,2.27
2018-07-21T03:06:25.138Z,2.40
2018-07-21T03:08:55.819Z,2.37
2018-07-21T03:11:25.417Z,2.63
2018-07-21T03:13:54.808Z,2.80
2018-07-21T03:16:24.225Z,2.50
2018-07-21T03:18:53.612Z,2.90
2018-07-21T03:21:22.785Z,2.60
2018-07-21T03:23:51.957Z,2.30
2018-07-21T03:26:21.124Z,2.67
2018-07-21T03:28:50.285Z,2.50
2018-07-21T03:31:19.457Z,2.43
2018-07-21T03:33:48.876Z,2.07
2018-07-21T03:36:18.272Z,2.17
2018-07-21T03:38:47.481Z,2.60
2018-07-21T03:41:16.736Z,2.10
2018-07-21T03:43:46.144Z,2.40
2018-07-21T03:46:15.530Z,2.50
2018-07-21T03:48:44.735Z,2.47
2018-07-21T03:51:13.910Z,2.70
2018-07-21T03:53:43.355Z,2.20
2018-07-21T03:56:12.959Z,2.40
2018-07-21T03:58:42.588Z,2.37
2018-07-21T04:01:12.200Z,3.00
2018-07-21T04:03:41.879Z,2.33
2018-07-21T04:06:11.241Z,2.27
2018-07-21T04:08:40.657Z,2.50
2018-07-21T04:11:10.285Z,2.43
2018-07-21T04:13:39.999Z,2.73
2018-07-21T04:16:09.378Z,2.37
2018-07-21T04:18:38.529Z,2.80
2018-07-21T04:21:07.751Z,2.20
2018-07-21T04:23:36.944Z,2.03
2018-07-21T04:26:09.778Z,2.50
2018-07-21T04:28:39.010Z,2.67
2018-07-21T04:31:08.373Z,2.77
2018-07-21T04:33:37.533Z,2.77
2018-07-21T04:36:06.699Z,2.30
2018-07-21T04:38:35.890Z,2.17
2018-07-21T04:41:06.545Z,2.30
2018-07-21T04:43:36.407Z,2.70
2018-07-21T04:46:05.859Z,2.73
2018-07-21T04:48:35.735Z,2.90
2018-07-21T04:51:05.407Z,2.87
2018-07-21T04:53:34.584Z,3.00
2018-07-21T04:56:03.747Z,2.57
2018-07-21T04:58:33.242Z,2.70
2018-07-21T05:01:02.713Z,2.30
2018-07-21T05:03:31.887Z,2.80
2018-07-21T05:06:02.753Z,2.37
2018-07-21T05:08:32.409Z,3.27
2018-07-21T05:11:02.172Z,2.20
2018-07-21T05:13:31.794Z,2.43
2018-07-21T05:16:01.458Z,2.83
2018-07-21T05:18:30.840Z,2.47
2018-07-21T05:21:00.037Z,2.67
2018-07-21T05:23:29.228Z,2.97
2018-07-21T05:25:58.398Z,2.30
2018-07-21T05:28:27.672Z,2.70
2018-07-21T05:30:57.101Z,2.37
2018-07-21T05:33:30.078Z,3.43
2018-07-21T05:35:59.230Z,2.70
2018-07-21T05:38:28.426Z,2.43
2018-07-21T05:40:59.545Z,2.73
2018-07-21T05:43:29.818Z,1.70
2018-07-21T05:45:58.995Z,2.67
2018-07-21T05:48:28.314Z,2.80
2018-07-21T05:50:58.625Z,2.20
2018-07-21T05:53:28.049Z,2.50
2018-07-21T05:55:57.689Z,2.63
2018-07-21T05:58:27.311Z,3.03
2018-07-21T06:00:56.608Z,2.33
2018-07-21T06:03:26.257Z,2.40
2018-07-21T06:05:56.581Z,2.20
2018-07-21T06:08:26.025Z,2.27
2018-07-21T06:10:55.242Z,2.10
2018-07-21T06:13:24.422Z,2.37
2018-07-21T06:15:53.819Z,2.40
2018-07-21T06:18:23.294Z,2.27
2018-07-21T06:20:52.525Z,2.13
2018-07-21T06:23:21.773Z,2.33
2018-07-21T06:25:51.259Z,2.17
2018-07-21T06:28:20.987Z,2.10
2018-07-21T06:30:50.619Z,2.10
2018-07-21T06:33:21.093Z,2.20
2018-07-21T06:35:50.453Z,2.10
2018-07-21T06:38:19.717Z,2.57
2018-07-21T06:40:49.135Z,1.90
2018-07-21T06:43:18.548Z,2.10
2018-07-21T06:45:47.727Z,2.03
2018-07-21T06:48:17.201Z,2.50
2018-07-21T06:50:46.388Z,2.53
2018-07-21T06:53:15.811Z,2.13
2018-07-21T06:55:45.261Z,2.20
2018-07-21T06:58:14.437Z,2.00
2018-07-21T07:00:43.725Z,1.87
2018-07-21T07:03:13.289Z,2.43
2018-07-21T07:05:42.949Z,2.50
2018-07-21T07:08:12.407Z,2.00
2018-07-21T07:10:41.589Z,2.10
2018-07-21T07:13:10.863Z,2.20
2018-07-21T07:15:40.359Z,2.07
2018-07-21T07:18:09.792Z,2.23
2018-07-21T07:20:38.981Z,2.00
2018-07-21T07:23:08.256Z,2.10
2018-07-21T07:25:37.687Z,2.13
2018-07-21T07:28:07.080Z,2.53
2018-07-21T07:30:36.515Z,2.07
2018-07-21T07:33:05.999Z,2.17
2018-07-21T07:35:35.459Z,1.90
2018-07-21T07:38:04.841Z,1.90
2018-07-21T07:40:34.293Z,1.87
2018-07-21T07:43:03.775Z,1.77
2018-07-21T07:45:33.041Z,2.40
2018-07-21T07:48:02.232Z,2.10
2018-07-21T07:50:31.401Z,1.80
2018-07-21T07:53:00.903Z,1.93
2018-07-21T07:55:32.529Z,2.00
2018-07-21T07:58:03.447Z,2.30
2018-07-21T08:00:34.099Z,2.30
2018-07-21T08:03:04.017Z,2.07
2018-07-21T08:05:33.718Z,2.07
2018-07-21T08:08:03.146Z,2.20
2018-07-21T08:10:33.445Z,2.20
2018-07-21T08:13:03.269Z,1.98
2018-07-21T08:15:32.674Z,1.83
2018-07-21T08:18:04.295Z,2.10
2018-07-21T08:20:33.927Z,2.13
2018-07-21T08:23:03.506Z,2.20
2018-07-21T08:25:33.112Z,2.80
2018-07-21T08:28:02.597Z,1.90
2018-07-21T08:30:32.017Z,2.33
2018-07-21T08:33:01.661Z,2.37
2018-07-21T08:35:31.277Z,2.20
2018-07-21T08:38:00.674Z,1.97
2018-07-21T08:40:31.009Z,2.17
2018-07-21T08:43:00.680Z,2.07
2018-07-21T08:45:30.361Z,2.23
2018-07-21T08:47:59.583Z,2.30
2018-07-21T08:50:29.056Z,2.50
2018-07-21T08:52:58.693Z,2.33
2018-07-21T08:55:28.165Z,1.97
2018-07-21T08:57:57.393Z,2.40
2018-07-21T09:00:27.746Z,2.73
2018-07-21T09:02:57.605Z,2.40
2018-07-21T09:05:27.247Z,2.10
2018-07-21T09:07:56.911Z,2.10
2018-07-21T09:10:26.317Z,2.33
2018-07-21T09:12:55.575Z,2.30
2018-07-21T09:15:24.730Z,2.27
2018-07-21T09:17:53.910Z,2.67
2018-07-21T09:20:23.329Z,2.53
2018-07-21T09:22:53.179Z,2.07
2018-07-21T09:25:22.878Z,2.10
2018-07-21T09:27:52.312Z,2.00
2018-07-21T09:30:21.767Z,2.33
2018-07-21T09:32:51.181Z,2.70
2018-07-21T09:35:20.359Z,2.03
2018-07-21T09:37:49.539Z,2.53
2018-07-21T09:40:18.953Z,2.73
2018-07-21T09:42:48.575Z,2.67
2018-07-21T09:45:21.262Z,2.57
2018-07-21T09:47:50.434Z,2.07
2018-07-21T09:50:19.654Z,2.30
2018-07-21T09:52:48.842Z,2.33
2018-07-21T09:55:18.356Z,2.30
2018-07-21T09:57:47.846Z,2.27
2018-07-21T10:00:23.257Z,2.43
2018-07-21T10:02:53.063Z,2.57
2018-07-21T10:05:22.815Z,2.40
2018-07-21T10:07:52.209Z,2.80
2018-07-21T10:10:21.488Z,2.30
2018-07-21T10:12:50.683Z,2.60
2018-07-21T10:15:19.961Z,2.57
2018-07-21T10:17:49.144Z,2.30
2018-07-21T10:20:18.617Z,2.30
2018-07-21T10:22:48.308Z,2.60
2018-07-21T10:25:23.481Z,2.40
2018-07-21T10:27:58.616Z,2.70
2018-07-21T10:30:28.606Z,2.30
2018-07-21T10:32:57.975Z,2.90
2018-07-21T10:35:27.232Z,2.60
2018-07-21T10:37:56.390Z,2.80
2018-07-21T10:40:25.589Z,2.60
2018-07-21T10:42:54.782Z,2.37
2018-07-21T10:45:24.367Z,2.90
2018-07-21T10:47:53.991Z,2.60
2018-07-21T10:50:23.669Z,2.30
2018-07-21T10:52:53.145Z,2.90
2018-07-21T10:55:22.786Z,2.90
2018-07-21T10:57:52.477Z,2.63
2018-07-21T11:00:21.656Z,2.83
2018-07-21T11:02:50.858Z,2.63
2018-07-21T11:05:20.127Z,2.50
2018-07-21T11:07:49.327Z,2.63
2018-07-21T11:10:18.787Z,2.40
2018-07-21T11:12:48.432Z,2.83
2018-07-21T11:15:18.247Z,2.70
2018-07-21T11:17:47.855Z,2.70
2018-07-21T11:20:17.309Z,2.80
2018-07-21T11:22:46.493Z,2.83
2018-07-21T11:25:15.787Z,3.27
2018-07-21T11:27:45.226Z,3.10
2018-07-21T11:30:14.624Z,3.17
2018-07-21T11:32:43.852Z,2.47
2018-07-21T11:35:13.225Z,3.07
2018-07-21T11:37:42.549Z,2.60
2018-07-21T11:40:11.953Z,2.60
2018-07-21T11:42:41.917Z,3.00
2018-07-21T11:45:11.355Z,2.50
2018-07-21T11:47:41.039Z,3.13
2018-07-21T11:50:10.829Z,2.70
2018-07-21T11:52:40.491Z,3.10
2018-07-21T11:55:10.031Z,3.00
2018-07-21T11:57:39.258Z,3.10
2018-07-21T12:00:08.504Z,3.17
2018-07-21T12:02:37.938Z,2.80
2018-07-21T12:05:07.417Z,3.17
2018-07-21T12:07:36.922Z,2.90
2018-07-21T12:10:06.351Z,2.93
2018-07-21T12:12:35.788Z,2.73
2018-07-21T12:15:05.408Z,3.37
2018-07-21T12:17:34.605Z,3.20
2018-07-21T12:20:04.142Z,2.80
2018-07-21T12:22:33.777Z,2.80
2018-07-21T12:25:03.003Z,3.30
2018-07-21T12:27:32.234Z,3.37
2018-07-21T12:30:01.377Z,3.70
2018-07-21T12:32:31.230Z,3.00
2018-07-21T12:35:00.782Z,2.97
2018-07-21T12:37:30.442Z,2.77
2018-07-21T12:40:00.167Z,3.40
2018-07-21T12:42:30.471Z,3.10
2018-07-21T12:45:00.676Z,3.40
2018-07-21T12:47:30.275Z,3.47
2018-07-21T12:49:59.857Z,3.20
2018-07-21T12:52:29.529Z,3.63
2018-07-21T12:54:59.195Z,3.00
2018-07-21T12:57:28.623Z,3.17
2018-07-21T12:59:58.125Z,3.30
2018-07-21T13:02:28.294Z,3.80
2018-07-21T13:04:57.835Z,3.40
2018-07-21T13:07:27.031Z,3.00
2018-07-21T13:09:56.231Z,3.00
2018-07-21T13:12:25.394Z,3.27
2018-07-21T13:14:54.587Z,3.03
2018-07-21T13:17:24.603Z,3.80
2018-07-21T13:19:54.052Z,3.30
2018-07-21T13:22:23.683Z,2.97
2018-07-21T13:24:53.324Z,2.77
2018-07-21T13:27:23.469Z,3.40
2018-07-21T13:29:52.651Z,3.10
2018-07-21T13:32:22.611Z,3.10
2018-07-21T13:34:52.074Z,3.57
2018-07-21T13:37:21.260Z,3.20
2018-07-21T13:39:50.413Z,3.50
2018-07-21T13:42:20.687Z,3.80
2018-07-21T13:44:50.472Z,3.10
2018-07-21T13:47:19.656Z,3.60
2018-07-21T13:49:49.336Z,3.00
2018-07-21T13:52:19.028Z,3.20
2018-07-21T13:54:51.788Z,3.83
2018-07-21T13:57:21.232Z,3.37
2018-07-21T13:59:50.830Z,4.00
2018-07-21T14:02:20.562Z,3.60
2018-07-21T14:04:49.940Z,3.53
2018-07-21T14:07:19.404Z,3.20
2018-07-21T14:09:48.856Z,3.20
2018-07-21T14:12:18.050Z,3.30
2018-07-21T14:14:50.359Z,3.00
2018-07-21T14:17:19.986Z,3.27
2018-07-21T14:19:49.408Z,4.00
2018-07-21T14:22:18.576Z,3.73
2018-07-21T14:24:48.014Z,3.53
2018-07-21T14:27:17.698Z,3.37
2018-07-21T14:29:47.774Z,3.20
2018-07-21T14:32:17.162Z,3.40
2018-07-21T14:34:46.332Z,3.90
2018-07-21T14:37:15.750Z,3.10
2018-07-21T14:39:45.456Z,3.60
2018-07-21T14:42:14.994Z,3.33
2018-07-21T14:44:44.176Z,3.53
2018-07-21T14:47:13.480Z,3.50
2018-07-21T14:49:42.972Z,3.13
2018-07-21T14:52:12.635Z,3.50
2018-07-21T14:54:42.092Z,4.00
2018-07-21T14:57:11.575Z,3.40
2018-07-21T14:59:40.824Z,3.60
2018-07-21T15:02:10.567Z,3.73
2018-07-21T15:04:40.035Z,3.20
2018-07-21T15:07:11.123Z,3.90
2018-07-21T15:09:40.892Z,3.13
2018-07-21T15:12:10.535Z,3.80
2018-07-21T15:14:39.993Z,3.53
2018-07-21T15:17:09.461Z,3.60
2018-07-21T15:19:39.165Z,3.80
2018-07-21T15:22:08.660Z,3.63
2018-07-21T15:24:38.711Z,3.37
2018-07-21T15:27:08.179Z,3.70
2018-07-21T15:29:38.321Z,3.77
2018-07-21T15:32:09.488Z,3.73
2018-07-21T15:34:39.164Z,4.30
2018-07-21T15:37:09.176Z,3.70
2018-07-21T15:39:38.665Z,3.30
2018-07-21T15:42:08.587Z,3.87
2018-07-21T15:44:38.224Z,3.40
2018-07-21T15:47:07.624Z,3.30
2018-07-21T15:49:37.030Z,4.13
2018-07-21T15:52:06.447Z,3.60
2018-07-21T15:54:35.628Z,4.03
2018-07-21T15:57:04.875Z,4.27
2018-07-21T15:59:34.064Z,4.10
2018-07-21T16:02:04.353Z,3.57
2018-07-21T16:04:33.818Z,3.77
2018-07-21T16:07:03.364Z,4.20
2018-07-21T16:09:32.642Z,3.47
2018-07-21T16:12:01.789Z,3.60
2018-07-21T16:14:31.326Z,3.73
2018-07-21T16:17:00.761Z,3.43
2018-07-21T16:19:30.082Z,3.30
2018-07-21T16:21:59.234Z,3.50
2018-07-21T16:24:28.415Z,4.00
2018-07-21T16:26:57.877Z,3.90
2018-07-21T16:29:27.306Z,4.60
2018-07-21T16:31:56.760Z,3.87
2018-07-21T16:34:26.142Z,4.30
2018-07-21T16:36:55.440Z,4.07
2018-07-21T16:39:27.513Z,3.60
2018-07-21T16:41:57.815Z,3.60
2018-07-21T16:44:27.478Z,3.33
2018-07-21T16:46:57.226Z,3.50
2018-07-21T16:49:26.656Z,4.37
2018-07-21T16:51:55.847Z,3.77
2018-07-21T16:54:25.080Z,3.70
2018-07-21T16:56:54.294Z,3.80
2018-07-21T16:59:23.702Z,3.90
2018-07-21T17:01:52.888Z,4.03
2018-07-21T17:04:22.214Z,4.20
2018-07-21T17:06:51.557Z,3.80
2018-07-21T17:09:21.162Z,3.60
2018-07-21T17:11:50.568Z,4.00
2018-07-21T17:14:20.817Z,3.83
2018-07-21T17:16:50.194Z,3.67
2018-07-21T17:19:19.605Z,3.70
2018-07-21T17:21:50.035Z,3.70
2018-07-21T17:24:19.220Z,4.50
2018-07-21T17:26:48.453Z,3.50
2018-07-21T17:29:17.654Z,3.40
2018-07-21T17:31:46.874Z,3.40
2018-07-21T17:34:17.310Z,3.50
2018-07-21T17:36:47.908Z,3.60
2018-07-21T17:39:17.576Z,3.50
2018-07-21T17:41:46.720Z,4.13
2018-07-21T17:44:15.956Z,3.33
2018-07-21T17:46:45.124Z,4.00
2018-07-21T17:49:14.568Z,3.93
2018-07-21T17:51:43.938Z,3.40
2018-07-21T17:54:13.118Z,3.33
2018-07-21T17:56:42.530Z,3.70
2018-07-21T17:59:14.380Z,4.40
2018-07-21T18:01:43.739Z,3.97
2018-07-21T18:04:13.195Z,3.83
2018-07-21T18:06:42.844Z,4.13
2018-07-21T18:09:12.255Z,4.10
2018-07-21T18:11:41.480Z,4.40
2018-07-21T18:14:10.943Z,4.60
2018-07-21T18:16:40.361Z,4.07
2018-07-21T18:19:09.874Z,4.03
2018-07-21T18:21:39.291Z,4.60
2018-07-21T18:24:08.738Z,4.45
2018-07-21T18:26:38.422Z,4.73
2018-07-21T18:29:07.879Z,3.43
2018-07-21T18:31:37.341Z,3.87
2018-07-21T18:34:06.930Z,4.07
2018-07-21T18:36:36.399Z,3.80
2018-07-21T18:39:07.209Z,4.40
2018-07-21T18:41:36.429Z,4.13
2018-07-21T18:44:05.989Z,3.97
2018-07-21T18:46:36.215Z,4.03
2018-07-21T18:49:10.738Z,3.97
2018-07-21T18:51:40.101Z,3.73
2018-07-21T18:54:09.643Z,4.23
2018-07-21T18:56:39.245Z,4.60
2018-07-21T18:59:08.714Z,4.43
2018-07-21T19:01:37.950Z,4.50
2018-07-21T19:04:07.393Z,5.43
2018-07-21T19:06:36.906Z,4.80
2018-07-21T19:09:07.083Z,5.00
2018-07-21T19:11:36.316Z,4.92
2018-07-21T19:14:05.930Z,6.23
2018-07-21T19:16:42.550Z,4.03
2018-07-21T19:19:12.056Z,5.00
2018-07-21T19:21:41.422Z,5.33
2018-07-21T19:24:10.625Z,4.50
2018-07-21T19:26:45.268Z,4.43
2018-07-21T19:29:14.701Z,4.70
2018-07-21T19:31:49.422Z,4.50
2018-07-21T19:34:18.784Z,4.20
2018-07-21T19:36:48.014Z,5.10
2018-07-21T19:39:17.302Z,4.20
2018-07-21T19:41:52.130Z,4.90
2018-07-21T19:44:21.849Z,4.73
2018-07-21T19:46:51.525Z,5.10
2018-07-21T19:49:21.021Z,4.53
2018-07-21T19:51:50.249Z,4.87
2018-07-21T19:54:19.554Z,5.00
2018-07-21T19:56:48.892Z,5.10
2018-07-21T19:59:18.606Z,5.60
2018-07-21T20:01:48.017Z,5.20
2018-07-21T20:04:17.200Z,5.20
2018-07-21T20:06:46.396Z,5.60
2018-07-21T20:09:15.772Z,5.93
2018-07-21T20:11:44.958Z,4.70
2018-07-21T20:14:14.153Z,4.60
2018-07-21T20:16:43.326Z,4.87
2018-07-21T20:19:12.644Z,5.07
2018-07-21T20:21:41.816Z,4.43
2018-07-21T20:24:11.080Z,5.20
2018-07-21T20:26:40.232Z,5.50
2018-07-21T20:29:09.458Z,5.57
2018-07-21T20:31:38.646Z,4.70
2018-07-21T20:34:07.944Z,4.80
2018-07-21T20:36:37.160Z,5.27
2018-07-21T20:39:07.240Z,5.03
2018-07-21T20:41:36.410Z,4.80
2018-07-21T20:44:05.815Z,5.20
2018-07-21T20:46:35.914Z,5.27
2018-07-21T20:49:05.868Z,5.17
2018-07-21T20:51:35.002Z,4.60
2018-07-21T20:54:04.522Z,5.37
2018-07-21T20:56:34.199Z,5.17
2018-07-21T20:59:05.720Z,4.73
2018-07-21T21:01:35.376Z,4.50
2018-07-21T21:04:05.109Z,4.77
2018-07-21T21:06:34.694Z,4.53
2018-07-21T21:09:05.677Z,4.33
2018-07-21T21:11:35.110Z,5.17
2018-07-21T21:14:04.967Z,5.40
2018-07-21T21:16:34.584Z,4.50
2018-07-21T21:19:04.302Z,5.03
2018-07-21T21:21:33.972Z,5.60
2018-07-21T21:24:03.616Z,4.70
2018-07-21T21:26:33.317Z,5.53
2018-07-21T21:29:03.649Z,5.90
2018-07-21T21:31:33.067Z,4.90
2018-07-21T21:34:02.264Z,4.73
2018-07-21T21:36:31.434Z,5.73
2018-07-21T21:39:01.078Z,4.93
2018-07-21T21:41:30.315Z,5.87
2018-07-21T21:43:59.480Z,5.53
2018-07-21T21:46:28.660Z,5.27
2018-07-21T21:48:58.079Z,5.27
2018-07-21T21:51:27.484Z,5.20
2018-07-21T21:53:56.761Z,5.47
2018-07-21T21:56:26.054Z,5.23
2018-07-21T21:58:55.507Z,5.47
2018-07-21T22:01:24.994Z,5.00
2018-07-21T22:03:54.202Z,4.80
2018-07-21T22:06:23.387Z,4.90
2018-07-21T22:08:52.565Z,5.50
2018-07-21T22:11:21.846Z,5.60
2018-07-21T22:13:51.319Z,5.50
2018-07-21T22:16:20.710Z,6.17
2018-07-21T22:18:49.919Z,6.27
2018-07-21T22:21:19.444Z,5.20
2018-07-21T22:23:49.113Z,5.50
2018-07-21T22:26:18.506Z,5.57
2018-07-21T22:28:47.673Z,5.30
2018-07-21T22:31:17.184Z,5.53
2018-07-21T22:33:46.642Z,4.80
2018-07-21T22:36:16.094Z,5.77
2018-07-21T22:38:45.509Z,5.47
2018-07-21T22:41:14.702Z,5.60
2018-07-21T22:43:44.141Z,5.57
2018-07-21T22:46:13.752Z,6.00
2018-07-21T22:48:44.546Z,4.70
2018-07-21T22:51:13.745Z,5.50
2018-07-21T22:53:45.562Z,5.47
2018-07-21T22:56:15.182Z,5.87
2018-07-21T22:58:44.596Z,5.97
2018-07-21T23:01:13.860Z,5.77
2018-07-21T23:03:43.273Z,6.50
2018-07-21T23:06:12.930Z,5.43
2018-07-21T23:08:42.596Z,7.00
2018-07-21T23:11:12.032Z,6.30
2018-07-21T23:13:41.500Z,6.57
2018-07-21T23:16:11.154Z,6.20
2018-07-21T23:18:40.785Z,6.40
2018-07-21T23:21:10.256Z,6.00
2018-07-21T23:23:39.450Z,6.60
2018-07-21T23:26:08.644Z,6.37
2018-07-21T23:28:38.034Z,6.60
2018-07-21T23:31:07.477Z,6.23
2018-07-21T23:33:36.897Z,7.03
2018-07-21T23:36:06.519Z,7.50
2018-07-21T23:38:35.991Z,6.60
2018-07-21T23:41:05.460Z,6.60
2018-07-21T23:43:35.148Z,6.73
2018-07-21T23:46:04.512Z,6.70
2018-07-21T23:48:33.663Z,7.57
2018-07-21T23:51:02.885Z,6.77
2018-07-21T23:53:32.068Z,7.03
2018-07-21T23:56:01.245Z,8.93
2018-07-21T23:58:30.457Z,7.53
